^^
MeteoGriva-Weather Station Historical Data
Daily Summary for August 5, 2020 Units:  English    Metric   Both
Daily Weekly Monthly Yearly Custom
  High: Low: Average:
Temperature: 48.2 °F 36.7 °F 42.4 °F
Dew Point: 35.8 °F 23.2 °F 30 °F
Humidity: 70.6% 44.6% 62%
Wind Speed: 7.4mph 0mph 3.1mph
Wind Gust: 22.6mph - -
Wind- - ESE
Pressure: 30 in 29.8 in -
Precipitation: 0 in    
Historical Graphs
 
 
Tabular Data for August 5, 2020
Time Temperature Dew Point Pressure Wind Wind Speed Wind Gust Humidity Rainfall Rate (Hourly) solar
00:04 47.3 °F 31.3 °F 29.9 in Calm     53.6% 0 in 0 W/m2
00:09 47.3 °F 31.5 °F 29.9 in Calm     54% 0 in 0 W/m2
00:14 47.1 °F 31.5 °F 29.9 in Calm     54.7% 0 in 0 W/m2
00:19 46.8 °F 32.4 °F 29.9 in Calm     57% 0 in 0 W/m2
00:24 46.8 °F 32.7 °F 29.9 in Calm     57.9% 0 in 0 W/m2
00:29 46.8 °F 31.6 °F 29.9 in Calm     55.6% 0 in 0 W/m2
00:34 47.1 °F 30.9 °F 29.9 in Calm     53.3% 0 in 0 W/m2
00:39 47.3 °F 32.5 °F 29.9 in Calm     56.1% 0 in 0 W/m2
00:44 47.1 °F 33.3 °F 29.9 in Calm     58% 0 in 0 W/m2
00:49 47.1 °F 32.7 °F 29.9 in Calm     57.3% 0 in 0 W/m2
00:54 46.6 °F 32.5 °F 29.9 in Calm     57.7% 0 in 0 W/m2
00:59 46.2 °F 32.2 °F 29.9 in Calm     58% 0 in 0 W/m2
01:04 46.2 °F 32.2 °F 29.9 in Calm     58.1% 0 in 0 W/m2
01:09 46.2 °F 32.5 °F 29.9 in Calm     58.8% 0 in 0 W/m2
01:14 46.2 °F 32.5 °F 29.9 in Calm     58.8% 0 in 0 W/m2
01:19 46.2 °F 32.7 °F 29.9 in Calm     58.9% 0 in 0 W/m2
01:24 46.2 °F 33.1 °F 29.9 in Calm     60.2% 0 in 0 W/m2
01:29 46 °F 33.4 °F 29.9 in Calm     61.1% 0 in 0 W/m2
01:34 45.7 °F 33.4 °F 29.9 in Calm     62% 0 in 0 W/m2
01:39 45 °F 32.7 °F 29.9 in Calm     62% 0 in 0 W/m2
01:44 45 °F 32.7 °F 29.9 in Calm     62% 0 in 0 W/m2
01:49 45 °F 32.9 °F 29.9 in Calm     62.3% 0 in 0 W/m2
01:54 45 °F 33.3 °F 29.9 in Calm     63.4% 0 in 0 W/m2
01:59 45 °F 33.6 °F 29.9 in Calm     64.4% 0 in 0 W/m2
02:04 45 °F 34.2 °F 29.9 in Calm     65.3% 0 in 0 W/m2
02:09 45 °F 34.3 °F 29.9 in Calm     66.3% 0 in 0 W/m2
02:14 45 °F 34.3 °F 29.9 in Calm     66.3% 0 in 0 W/m2
02:19 44.6 °F 34.2 °F 29.9 in Calm     66.6% 0 in 0 W/m2
02:24 44.8 °F 34.3 °F 29.9 in Calm   2.5 mph 66.7% 0 in 0 W/m2
02:29 44.8 °F 34.3 °F 29.9 in Calm   4.9 mph 66.6% 0 in 0 W/m2
02:34 45.3 °F 34.7 °F 29.9 in SE 0.2 mph 4.9 mph 66.2% 0 in 0 W/m2
02:39 46.6 °F 35.4 °F 29.9 in ESE 0.4 mph 2.5 mph 65.1% 0 in 0 W/m2
02:44 46.6 °F 35.6 °F 29.9 in ENE 1.1 mph 4.9 mph 65.3% 0 in 0 W/m2
02:49 46.8 °F 35.4 °F 29.9 in ESE 0.2 mph 4.9 mph 64.6% 0 in 0 W/m2
02:54 46.9 °F 35.4 °F 29.9 in ENE 0.8 mph 4.9 mph 63.8% 0 in 0 W/m2
02:59 48 °F 35.8 °F 29.9 in ESE 2.4 mph 7.6 mph 62.5% 0 in 0 W/m2
03:04 48 °F 35.6 °F 29.9 in SW 2.7 mph 10.1 mph 62% 0 in 0 W/m2
03:09 48.2 °F 35.8 °F 29.9 in East 2.5 mph 10.1 mph 62% 0 in 0 W/m2
03:14 48.2 °F 35.6 °F 29.9 in East 1.4 mph 10.1 mph 61.6% 0 in 0 W/m2
03:19 48.2 °F 35.8 °F 29.9 in WNW 1.1 mph 7.6 mph 62% 0 in 0 W/m2
03:24 48.2 °F 35.6 °F 29.9 in East 1.6 mph 10.1 mph 61.6% 0 in 0 W/m2
03:29 48.2 °F 35.1 °F 29.9 in SE 2.1 mph 10.1 mph 60.4% 0 in 0 W/m2
03:34 48.2 °F 34.9 °F 29.9 in East 2.7 mph 12.5 mph 60% 0 in 0 W/m2
03:39 48.2 °F 34.9 °F 29.9 in East 2.2 mph 10.1 mph 60.1% 0 in 0 W/m2
03:44 48.2 °F 35.4 °F 29.9 in East 3.4 mph 12.5 mph 61% 0 in 0 W/m2
03:49 48 °F 35.2 °F 29.9 in ESE 3.1 mph 12.5 mph 61% 0 in 0 W/m2
03:54 48 °F 35.2 °F 29.9 in East 3.7 mph 12.5 mph 61% 0 in 0 W/m2
03:59 47.7 °F 34.7 °F 29.9 in SE 4.2 mph 10.1 mph 60.7% 0 in 0 W/m2
04:04 47.7 °F 34.9 °F 29.9 in ENE 1.3 mph 10.1 mph 60.8% 0 in 0 W/m2
04:09 47.7 °F 34.9 °F 29.9 in SE 0.9 mph 7.6 mph 61% 0 in 0 W/m2
04:14 47.7 °F 34.9 °F 29.9 in East 0.7 mph 7.6 mph 61% 0 in 0 W/m2
04:19 47.5 °F 34.7 °F 29.9 in ENE 1.9 mph 7.6 mph 61% 0 in 0 W/m2
04:24 47.5 °F 34.3 °F 29.9 in ENE 1.4 mph 10.1 mph 60.1% 0 in 0 W/m2
04:29 47.5 °F 34.2 °F 29.9 in ENE 1.5 mph 7.6 mph 59.8% 0 in 0 W/m2
04:34 47.5 °F 34.3 °F 29.9 in ENE 2.2 mph 7.6 mph 60% 0 in 0 W/m2
04:39 47.5 °F 34.3 °F 29.8 in East 2.4 mph 17.4 mph 60% 0 in 0 W/m2
04:44 47.3 °F 34.2 °F 29.9 in East 1.7 mph 10.1 mph 60% 0 in 0 W/m2
04:49 47.3 °F 34.3 °F 29.8 in NE 1.4 mph 10.1 mph 60.5% 0 in 0 W/m2
04:54 47.3 °F 34.3 °F 29.8 in ENE 1.7 mph 10.1 mph 60.2% 0 in 0 W/m2
04:59 47.3 °F 34.2 °F 29.8 in East 2.4 mph 12.5 mph 60.1% 0 in 0 W/m2
05:04 47.3 °F 34.5 °F 29.8 in East 1.5 mph 7.6 mph 61% 0 in 0 W/m2
05:09 47.3 °F 34.5 °F 29.8 in NW 1.3 mph 10.1 mph 61% 0 in 0 W/m2
05:14 47.3 °F 34.5 °F 29.8 in ENE 1.7 mph 10.1 mph 61% 0 in 0 W/m2
05:19 47.3 °F 34.5 °F 29.8 in East 2.2 mph 7.6 mph 61.1% 0 in 0 W/m2
05:24 47.3 °F 34.7 °F 29.8 in East 1.6 mph 7.6 mph 61.5% 0 in 0 W/m2
05:29 47.3 °F 34.9 °F 29.8 in ENE 2.7 mph 7.6 mph 62% 0 in 0 W/m2
05:34 47.3 °F 34.9 °F 29.8 in ESE 1.6 mph 7.6 mph 62% 0 in 0 W/m2
05:39 47.1 °F 34.7 °F 29.8 in ESE 2.2 mph 7.6 mph 62% 0 in 0 W/m2
05:44 47.1 °F 34.7 °F 29.8 in East 2.7 mph 15 mph 62% 0 in 0 W/m2
05:49 47.1 °F 34.9 °F 29.8 in East 2 mph 7.6 mph 62.4% 0 in 0 W/m2
05:54 47.1 °F 34.7 °F 29.8 in NE 1.5 mph 7.6 mph 62% 0 in 0 W/m2
05:59 47.1 °F 34.9 °F 29.8 in South 1.7 mph 10.1 mph 62.4% 0 in 0 W/m2
06:04 46.9 °F 35.1 °F 29.8 in East 0.5 mph 10.1 mph 63% 0 in 0 W/m2
06:09 46.9 °F 35.1 °F 29.8 in East 1.4 mph 10.1 mph 63% 0 in 0 W/m2
06:14 46.9 °F 35.1 °F 29.8 in East 1.7 mph 12.5 mph 63% 0 in 0 W/m2
06:19 46.9 °F 35.1 °F 29.8 in ESE 2.1 mph 10.1 mph 63% 0 in 0 W/m2
06:24 46.9 °F 35.2 °F 29.8 in SE 1.1 mph 7.6 mph 63.6% 0 in 0 W/m2
06:29 46.9 °F 35.4 °F 29.8 in WSW 1.9 mph 10.1 mph 64% 0 in 0 W/m2
06:34 46.8 °F 35.2 °F 29.8 in SE 1 mph 10.1 mph 64% 0 in 0 W/m2
06:39 46.6 °F 35.1 °F 29.8 in North 1.9 mph 10.1 mph 64% 0 in 0 W/m2
06:44 46.4 °F 34.9 °F 29.8 in SE 1.7 mph 10.1 mph 64% 0 in 0 W/m2
06:49 46.4 °F 34.7 °F 29.8 in ESE 1.2 mph 7.6 mph 63.5% 0 in 0 W/m2
06:54 46.4 °F 34.7 °F 29.8 in East 1.1 mph 7.6 mph 63.7% 0 in 0 W/m2
06:59 46.4 °F 34.5 °F 29.8 in East 1.4 mph 7.6 mph 63.1% 0 in 0 W/m2
07:04 46.4 °F 34.5 °F 29.8 in ESE 1.9 mph 7.6 mph 63% 0 in 0 W/m2
07:09 46.4 °F 34.5 °F 29.9 in ENE 0.6 mph 10.1 mph 63% 0 in 0 W/m2
07:14 46.4 °F 34.7 °F 29.9 in SW 1.2 mph 4.9 mph 63.6% 0 in 0 W/m2
07:19 46 °F 34.5 °F 29.9 in SE 2.6 mph 10.1 mph 64% 0 in 0 W/m2
07:24 45.9 °F 34.7 °F 29.9 in ENE 2.2 mph 10.1 mph 64.8% 0 in 0 W/m2
07:29 45.9 °F 34.7 °F 29.9 in East 2.7 mph 10.1 mph 65% 0 in 0 W/m2
07:34 45.9 °F 34.7 °F 29.9 in East 2.2 mph 10.1 mph 65.2% 0 in 0 W/m2
07:39 45.3 °F 34.7 °F 29.9 in SSW 1.2 mph 7.6 mph 66.1% 0 in 0 W/m2
07:44 45.1 °F 34.2 °F 29.9 in East 3.1 mph 15 mph 65.1% 0 in 0 W/m2
07:49 45.1 °F 34.3 °F 29.9 in ESE 4.7 mph 12.5 mph 65.6% 0 in 0 W/m2
07:54 45.1 °F 34.7 °F 29.9 in NE 4.5 mph 12.5 mph 66.4% 0 in 0 W/m2
07:59 45 °F 34.9 °F 29.9 in East 4.5 mph 12.5 mph 67.4% 0 in 0 W/m2
08:04 44.8 °F 35.4 °F 29.9 in ESE 3.5 mph 12.5 mph 69.3% 0 in 0 W/m2
08:09 44.8 °F 35.8 °F 29.9 in East 3.9 mph 10.1 mph 70.6% 0 in 0 W/m2
08:14 44.6 °F 35.2 °F 29.9 in East 3 mph 10.1 mph 69.7% 0 in 0 W/m2
08:19 44.4 °F 34.7 °F 29.9 in ESE 3.2 mph 10.1 mph 68.4% 0 in 0 W/m2
08:24 44.4 °F 34.5 °F 29.9 in ESE 4 mph 12.5 mph 68% 0 in 2 W/m2
08:29 44.4 °F 34.5 °F 29.9 in East 4 mph 12.5 mph 68% 0 in 4 W/m2
08:34 44.4 °F 34.3 °F 29.9 in East 2.3 mph 10.1 mph 67.3% 0 in 4 W/m2
08:39 44.4 °F 34.2 °F 29.9 in NE 1.4 mph 7.6 mph 67% 0 in 4 W/m2
08:44 44.4 °F 33.8 °F 29.9 in East 1.5 mph 4.9 mph 66.2% 0 in 4 W/m2
08:49 44.4 °F 33.6 °F 29.9 in NE 2.2 mph 12.5 mph 65.4% 0 in 7 W/m2
08:54 44.4 °F 33.4 °F 29.9 in East 1.2 mph 10.1 mph 65% 0 in 10 W/m2
08:59 44.6 °F 33.4 °F 29.9 in West 1.2 mph 7.6 mph 65% 0 in 13 W/m2
09:04 44.4 °F 33.3 °F 29.9 in ESE 1.1 mph 7.6 mph 64.4% 0 in 17 W/m2
09:09 44.4 °F 33.1 °F 29.9 in SSE 0.9 mph 7.6 mph 64% 0 in 17 W/m2
09:14 44.4 °F 33.1 °F 29.9 in East 1.9 mph 7.6 mph 64% 0 in 17 W/m2
09:19 44.1 °F 32.7 °F 29.9 in ESE 2.7 mph 10.1 mph 64% 0 in 18 W/m2
09:24 43.9 °F 32.5 °F 29.9 in East 3.5 mph 10.1 mph 64% 0 in 20 W/m2
09:29 43.9 °F 32.5 °F 29.9 in East 1.3 mph 7.6 mph 64% 0 in 23 W/m2
09:34 43.9 °F 32.5 °F 29.9 in East 2 mph 10.1 mph 64% 0 in 26 W/m2
09:39 43.9 °F 32.5 °F 29.9 in SE 1.2 mph 4.9 mph 63.9% 0 in 31 W/m2
09:44 43.9 °F 32.2 °F 29.9 in ENE 1.7 mph 7.6 mph 63% 0 in 37 W/m2
09:49 43.9 °F 31.6 °F 29.9 in East 2.7 mph 10.1 mph 62.2% 0 in 43 W/m2
09:54 43.9 °F 31.6 °F 29.9 in ESE 2.2 mph 10.1 mph 62% 0 in 47 W/m2
09:59 44.1 °F 31.6 °F 29.9 in ENE 2.7 mph 7.6 mph 62% 0 in 50 W/m2
10:04 44.1 °F 31.5 °F 29.9 in ENE 2.8 mph 12.5 mph 61% 0 in 51 W/m2
10:09 44.1 °F 31.5 °F 29.9 in East 3.4 mph 10.1 mph 61% 0 in 55 W/m2
10:14 44.1 °F 31.5 °F 29.9 in East 1.9 mph 10.1 mph 61% 0 in 58 W/m2
10:19 44.1 °F 31.3 °F 29.9 in ESE 2.1 mph 10.1 mph 60.4% 0 in 58 W/m2
10:24 44.2 °F 31.5 °F 29.9 in ESE 1.6 mph 10.1 mph 60.3% 0 in 57 W/m2
10:29 44.1 °F 31.5 °F 29.9 in East 2.8 mph 10.1 mph 61% 0 in 57 W/m2
10:34 44.1 °F 31.6 °F 29.9 in ESE 1.7 mph 7.6 mph 61.4% 0 in 57 W/m2
10:39 43.9 °F 31.6 °F 29.9 in East 3.4 mph 10.1 mph 62% 0 in 58 W/m2
10:44 43.5 °F 31.3 °F 29.9 in East 3.9 mph 12.5 mph 62% 0 in 59 W/m2
10:49 43.5 °F 31.5 °F 29.9 in ENE 2.9 mph 12.5 mph 62.3% 0 in 64 W/m2
10:54 43.5 °F 32.2 °F 29.9 in East 4.1 mph 15 mph 64.2% 0 in 71 W/m2
10:59 43.2 °F 32.5 °F 29.9 in ESE 3.6 mph 15 mph 65.9% 0 in 76 W/m2
11:04 42.6 °F 32.4 °F 29.9 in East 4.2 mph 12.5 mph 67% 0 in 80 W/m2
11:09 42.6 °F 32.4 °F 29.9 in East 4.5 mph 12.5 mph 67% 0 in 81 W/m2
11:14 42.8 °F 32.5 °F 29.9 in ESE 2.1 mph 10.1 mph 67% 0 in 94 W/m2
11:19 43 °F 32.4 °F 29.9 in ESE 4.2 mph 12.5 mph 66% 0 in 103 W/m2
11:24 43.2 °F 32.5 °F 29.9 in East 4.8 mph 12.5 mph 66% 0 in 114 W/m2
11:29 43.2 °F 32.4 °F 29.9 in ESE 4.2 mph 10.1 mph 65.8% 0 in 131 W/m2
11:34 43.2 °F 32.7 °F 29.9 in East 3.6 mph 10.1 mph 66.3% 0 in 138 W/m2
11:39 43.2 °F 32.9 °F 29.9 in NE 4.7 mph 10.1 mph 67% 0 in 151 W/m2
11:44 43 °F 32.7 °F 29.9 in ESE 5.1 mph 12.5 mph 67.2% 0 in 129 W/m2
11:49 43 °F 33.1 °F 29.9 in East 4.2 mph 15 mph 68% 0 in 101 W/m2
11:54 42.8 °F 32.7 °F 29.9 in SE 3.5 mph 15 mph 67.1% 0 in 96 W/m2
11:59 42.6 °F 32.4 °F 29.9 in NE 5.9 mph 15 mph 66.8% 0 in 92 W/m2
12:04 42.3 °F 32 °F 29.9 in East 3.7 mph 10.1 mph 66.8% 0 in 87 W/m2
12:09 42.3 °F 31.6 °F 29.9 in East 3.4 mph 12.5 mph 65.6% 0 in 85 W/m2
12:14 42.4 °F 31.3 °F 29.9 in ESE 3.5 mph 12.5 mph 64.6% 0 in 88 W/m2
12:19 42.6 °F 30.6 °F 29.9 in ENE 4.3 mph 15 mph 62.1% 0 in 93 W/m2
12:24 42.8 °F 29.5 °F 29.9 in ESE 4.5 mph 12.5 mph 59.2% 0 in 97 W/m2
12:29 42.8 °F 28.4 °F 29.9 in East 3.7 mph 12.5 mph 56.3% 0 in 101 W/m2
12:34 42.8 °F 27.9 °F 29.8 in East 4.5 mph 12.5 mph 55.1% 0 in 105 W/m2
12:39 43 °F 27.9 °F 29.8 in East 3.9 mph 17.4 mph 54.9% 0 in 112 W/m2
12:44 43.3 °F 27.9 °F 29.8 in East 4.5 mph 17.4 mph 54% 0 in 124 W/m2
12:49 43.2 °F 26.8 °F 29.8 in East 6.1 mph 17.4 mph 52.2% 0 in 133 W/m2
12:54 43.3 °F 25.5 °F 29.8 in ESE 3.7 mph 15 mph 49.2% 0 in 144 W/m2
12:59 43.3 °F 25 °F 29.8 in ESE 4.3 mph 15 mph 47.8% 0 in 138 W/m2
13:04 43.9 °F 25.5 °F 29.8 in East 6.1 mph 15 mph 48% 0 in 181 W/m2
13:09 43.9 °F 25 °F 29.8 in NE 5.1 mph 15 mph 47.1% 0 in 157 W/m2
13:14 43.9 °F 24.6 °F 29.8 in ESE 6.2 mph 17.4 mph 46.3% 0 in 147 W/m2
13:19 43.7 °F 23.9 °F 29.8 in ESE 6.6 mph 15 mph 45.4% 0 in 144 W/m2
13:24 43.5 °F 23.2 °F 29.8 in SE 5.7 mph 15 mph 44.6% 0 in 166 W/m2
13:29 43.3 °F 23.4 °F 29.8 in ESE 6.5 mph 17.4 mph 45% 0 in 171 W/m2
13:34 43.3 °F 23.7 °F 29.8 in ESE 4.5 mph 12.5 mph 45.8% 0 in 159 W/m2
13:39 43.3 °F 24.8 °F 29.8 in ESE 5.1 mph 12.5 mph 47.8% 0 in 143 W/m2
13:44 42.8 °F 25.5 °F 29.8 in ESE 6.6 mph 15 mph 50% 0 in 142 W/m2
13:49 42.8 °F 26.2 °F 29.8 in East 5.5 mph 17.4 mph 51.8% 0 in 141 W/m2
13:54 42.8 °F 27.3 °F 29.8 in ESE 4.9 mph 17.4 mph 54% 0 in 139 W/m2
13:59 42.8 °F 27.5 °F 29.8 in SE 4.1 mph 12.5 mph 54.7% 0 in 136 W/m2
14:04 42.4 °F 27.5 °F 29.8 in SE 4.3 mph 12.5 mph 55.2% 0 in 107 W/m2
14:09 42.4 °F 28.2 °F 29.8 in ESE 5 mph 12.5 mph 57% 0 in 94 W/m2
14:14 42.4 °F 28.6 °F 29.8 in ESE 5.5 mph 12.5 mph 57.7% 0 in 86 W/m2
14:19 42.3 °F 28.9 °F 29.8 in SE 5.3 mph 15 mph 58.9% 0 in 79 W/m2
14:24 41.4 °F 27.9 °F 29.8 in ESE 7.4 mph 15 mph 58.3% 0 in 75 W/m2
14:29 41.4 °F 27 °F 29.8 in ESE 5.3 mph 17.4 mph 56.4% 0 in 68 W/m2
14:34 41.4 °F 26.1 °F 29.8 in East 5.1 mph 12.5 mph 54.3% 0 in 66 W/m2
14:39 41.4 °F 26.2 °F 29.8 in ESE 5.3 mph 15 mph 54.6% 0 in 64 W/m2
14:44 40.8 °F 26.8 °F 29.8 in ESE 4.6 mph 15 mph 56.8% 0 in 61 W/m2
14:49 40.8 °F 26.8 °F 29.8 in ESE 5.4 mph 15 mph 56.9% 0 in 60 W/m2
14:54 40.8 °F 26.6 °F 29.8 in East 4.8 mph 15 mph 56.5% 0 in 58 W/m2
14:59 40.6 °F 26.8 °F 29.8 in SE 5.3 mph 12.5 mph 57% 0 in 55 W/m2
15:04 40.1 °F 26.4 °F 29.8 in ESE 5.9 mph 17.4 mph 57.7% 0 in 55 W/m2
15:09 40.3 °F 26.2 °F 29.8 in SE 6.1 mph 12.5 mph 57% 0 in 55 W/m2
15:14 40.3 °F 26.2 °F 29.8 in ESE 5.2 mph 12.5 mph 57% 0 in 59 W/m2
15:19 40.3 °F 26.2 °F 29.8 in SE 4.5 mph 12.5 mph 57% 0 in 60 W/m2
15:24 40.3 °F 26.2 °F 29.9 in ESE 4.8 mph 15 mph 57% 0 in 58 W/m2
15:29 40.1 °F 26.1 °F 29.8 in SE 4.1 mph 12.5 mph 57% 0 in 53 W/m2
15:34 40.1 °F 26.1 °F 29.9 in ESE 3.3 mph 17.4 mph 57% 0 in 47 W/m2
15:39 40.1 °F 26.1 °F 29.9 in SE 3.1 mph 12.5 mph 57% 0 in 40 W/m2
15:44 39.9 °F 25.3 °F 29.9 in ESE 2.5 mph 12.5 mph 55.6% 0 in 35 W/m2
15:49 39.9 °F 24.8 °F 29.9 in ESE 5.6 mph 12.5 mph 54.4% 0 in 31 W/m2
15:54 39.9 °F 25.3 °F 29.9 in ESE 6.3 mph 20.1 mph 55.6% 0 in 27 W/m2
15:59 39.7 °F 25.3 °F 29.9 in SSE 4.9 mph 15 mph 56% 0 in 23 W/m2
16:04 39.2 °F 25.5 °F 29.9 in SW 5.2 mph 15 mph 57.7% 0 in 20 W/m2
16:09 39 °F 25.7 °F 29.9 in ESE 4.3 mph 15 mph 58.6% 0 in 19 W/m2
16:14 39 °F 26.2 °F 29.9 in SE 5.4 mph 17.4 mph 59.9% 0 in 18 W/m2
16:19 39 °F 26.8 °F 29.9 in SE 4.6 mph 15 mph 61% 0 in 18 W/m2
16:24 38.7 °F 26.4 °F 29.9 in ESE 4 mph 12.5 mph 61.1% 0 in 17 W/m2
16:29 38.5 °F 25.5 °F 29.9 in ESE 5 mph 17.4 mph 59.4% 0 in 14 W/m2
16:34 38.5 °F 25.3 °F 29.9 in SE 3.5 mph 17.4 mph 59% 0 in 11 W/m2
16:39 38.5 °F 25.9 °F 29.9 in SE 5 mph 15 mph 59.9% 0 in 8 W/m2
16:44 38.7 °F 25.5 °F 29.9 in SE 4 mph 15 mph 59% 0 in 6 W/m2
16:49 38.7 °F 25.7 °F 29.9 in ESE 4.2 mph 15 mph 59.3% 0 in 5 W/m2
16:54 38.5 °F 25.9 °F 29.9 in SE 4 mph 10.1 mph 60% 0 in 3 W/m2
16:59 38.5 °F 26.1 °F 29.9 in East 3.5 mph 10.1 mph 60.3% 0 in 2 W/m2
17:04 38.1 °F 26.1 °F 29.9 in ESE 4.8 mph 17.4 mph 61.3% 0 in 0 W/m2
17:09 37.9 °F 26.1 °F 29.9 in ESE 3.9 mph 15 mph 62% 0 in 0 W/m2
17:14 37.9 °F 26.4 °F 29.9 in ESE 6 mph 15 mph 62.9% 0 in 0 W/m2
17:19 37.9 °F 26.4 °F 29.9 in ESE 4.3 mph 15 mph 63% 0 in 0 W/m2
17:24 37.8 °F 26.1 °F 29.9 in East 4.8 mph 12.5 mph 62.7% 0 in 0 W/m2
17:29 37.8 °F 26.1 °F 29.9 in ESE 3.5 mph 10.1 mph 62.8% 0 in 0 W/m2
17:34 37.8 °F 26.1 °F 29.9 in SSE 4.3 mph 10.1 mph 62.8% 0 in 0 W/m2
17:39 37.6 °F 26.1 °F 29.9 in ESE 4.7 mph 12.5 mph 63% 0 in 0 W/m2
17:44 37.8 °F 26.1 °F 29.9 in ESE 3.5 mph 10.1 mph 62.3% 0 in 0 W/m2
17:49 37.8 °F 25.9 °F 29.9 in ESE 4.3 mph 12.5 mph 62% 0 in 0 W/m2
17:54 37.8 °F 25.9 °F 29.9 in SE 4.2 mph 15 mph 62% 0 in 0 W/m2
17:59 37.8 °F 25.7 °F 29.9 in ESE 3.2 mph 12.5 mph 61.6% 0 in 0 W/m2
18:04 37.9 °F 25.7 °F 29.9 in SE 3.9 mph 10.1 mph 60.7% 0 in 0 W/m2
18:09 37.9 °F 25.7 °F 29.9 in SE 3.5 mph 15 mph 61% 0 in 0 W/m2
18:14 37.9 °F 25.7 °F 29.9 in East 3.9 mph 15 mph 61% 0 in 0 W/m2
18:19 37.9 °F 25.7 °F 29.9 in SE 4 mph 10.1 mph 61.2% 0 in 0 W/m2
18:24 37.9 °F 25.7 °F 29.9 in ESE 4.5 mph 12.5 mph 61.1% 0 in 0 W/m2
18:29 37.9 °F 25.7 °F 29.9 in SE 3.6 mph 10.1 mph 61.2% 0 in 0 W/m2
18:34 37.9 °F 25.7 °F 29.9 in SE 4.2 mph 15 mph 61% 0 in 0 W/m2
18:39 37.9 °F 26.1 °F 29.9 in ESE 2.5 mph 12.5 mph 62% 0 in 0 W/m2
18:44 37.9 °F 26.1 °F 29.9 in SE 2.9 mph 10.1 mph 62% 0 in 0 W/m2
18:49 37.9 °F 26.2 °F 29.9 in SE 2.7 mph 10.1 mph 62.2% 0 in 0 W/m2
18:54 37.8 °F 26.1 °F 29.9 in SE 3.9 mph 15 mph 62.6% 0 in 0 W/m2
18:59 37.8 °F 26.1 °F 29.9 in ESE 4.9 mph 12.5 mph 62.8% 0 in 0 W/m2
19:04 37.8 °F 26.2 °F 29.9 in ESE 3.7 mph 12.5 mph 63% 0 in 0 W/m2
19:09 37.8 °F 26.2 °F 29.9 in ESE 4.5 mph 12.5 mph 63.3% 0 in 0 W/m2
19:14 37.6 °F 26.2 °F 29.9 in SE 4.2 mph 12.5 mph 63.3% 0 in 0 W/m2
19:19 37.6 °F 26.4 °F 29.9 in SSE 4.9 mph 15 mph 63.8% 0 in 0 W/m2
19:24 37.6 °F 26.6 °F 29.9 in SE 4 mph 15 mph 64% 0 in 0 W/m2
19:29 37.4 °F 26.8 °F 29.9 in SE 5.2 mph 12.5 mph 65% 0 in 0 W/m2
19:34 37.6 °F 26.6 °F 29.9 in ESE 7.1 mph 12.5 mph 64.2% 0 in 0 W/m2
19:39 37.6 °F 26.2 °F 29.9 in SE 5 mph 12.5 mph 63.1% 0 in 0 W/m2
19:44 37.8 °F 26.4 °F 29.9 in ESE 4.7 mph 15 mph 63.8% 0 in 0 W/m2
19:49 37.8 °F 26.6 °F 29.9 in ESE 4.6 mph 15 mph 64% 0 in 0 W/m2
19:54 37.8 °F 26.6 °F 29.9 in SE 3.7 mph 10.1 mph 64% 0 in 0 W/m2
19:59 37.8 °F 26.6 °F 29.9 in SSE 5 mph 12.5 mph 64% 0 in 0 W/m2
20:04 37.8 °F 26.6 °F 30 in ESE 5.7 mph 15 mph 64% 0 in 0 W/m2
20:09 37.8 °F 26.6 °F 30 in ESE 3.6 mph 15 mph 64% 0 in 0 W/m2
20:14 37.8 °F 26.6 °F 30 in SE 3.2 mph 7.6 mph 64% 0 in 0 W/m2
20:19 37.6 °F 26.6 °F 30 in ESE 3.9 mph 10.1 mph 64.1% 0 in 0 W/m2
20:24 37.6 °F 27 °F 30 in East 3.4 mph 12.5 mph 65% 0 in 0 W/m2
20:29 37.4 °F 26.4 °F 30 in East 5.2 mph 12.5 mph 64% 0 in 0 W/m2
20:34 37.4 °F 26.4 °F 30 in ESE 4.3 mph 12.5 mph 64% 0 in 0 W/m2
20:39 37.4 °F 26.8 °F 30 in ESE 4 mph 12.5 mph 64.9% 0 in 0 W/m2
20:44 37.4 °F 26.8 °F 30 in ESE 3.2 mph 10.1 mph 65% 0 in 0 W/m2
20:49 37.2 °F 26.6 °F 30 in ESE 4 mph 10.1 mph 65% 0 in 0 W/m2
20:54 37.2 °F 26.6 °F 30 in ESE 3.3 mph 12.5 mph 65% 0 in 0 W/m2
20:59 37.2 °F 26.6 °F 30 in SSE 4 mph 12.5 mph 64.9% 0 in 0 W/m2
21:04 37.2 °F 26.2 °F 30 in SE 3.1 mph 12.5 mph 64% 0 in 0 W/m2
21:09 37.4 °F 26.6 °F 30 in ESE 5.4 mph 15 mph 64.7% 0 in 0 W/m2
21:14 37.2 °F 26.6 °F 30 in SW 3.9 mph 15 mph 64.7% 0 in 0 W/m2
21:19 37.2 °F 26.2 °F 30 in ESE 6.5 mph 12.5 mph 64% 0 in 0 W/m2
21:24 37.2 °F 26.2 °F 30 in East 3.7 mph 12.5 mph 64% 0 in 0 W/m2
21:29 37.4 °F 26.6 °F 30 in SE 3.6 mph 12.5 mph 64.7% 0 in 0 W/m2
21:34 37.2 °F 26.6 °F 30 in ESE 5.7 mph 22.6 mph 65% 0 in 0 W/m2
21:39 37.2 °F 26.6 °F 30 in ESE 4.7 mph 10.1 mph 65% 0 in 0 W/m2
21:44 37.2 °F 26.6 °F 30 in SE 3.9 mph 10.1 mph 65% 0 in 0 W/m2
21:49 37.2 °F 26.6 °F 30 in ESE 4.5 mph 10.1 mph 65% 0 in 0 W/m2
21:54 37.2 °F 26.6 °F 30 in East 4.5 mph 12.5 mph 65% 0 in 0 W/m2
21:59 37.2 °F 26.6 °F 30 in SE 3.5 mph 12.5 mph 65% 0 in 0 W/m2
22:04 37.2 °F 26.6 °F 30 in ESE 4.1 mph 10.1 mph 65% 0 in 0 W/m2
22:09 37.2 °F 26.6 °F 30 in SE 2.9 mph 12.5 mph 65% 0 in 0 W/m2
22:14 37 °F 26.4 °F 30 in SE 4.3 mph 12.5 mph 65% 0 in 0 W/m2
22:19 37 °F 26.4 °F 30 in SE 4.8 mph 15 mph 65% 0 in 0 W/m2
22:24 37 °F 26.4 °F 30 in ESE 3.6 mph 15 mph 65% 0 in 0 W/m2
22:29 37 °F 26.2 °F 30 in SE 2.9 mph 10.1 mph 65% 0 in 0 W/m2
22:34 37 °F 26.4 °F 30 in ESE 5.3 mph 15 mph 65% 0 in 0 W/m2
22:39 37 °F 26.4 °F 30 in East 3.7 mph 10.1 mph 65% 0 in 0 W/m2
22:44 37 °F 26.4 °F 30 in ESE 3.9 mph 12.5 mph 65% 0 in 0 W/m2
22:49 36.9 °F 26.2 °F 30 in ESE 4.7 mph 12.5 mph 65% 0 in 0 W/m2
22:54 36.9 °F 26.2 °F 30 in SE 4.4 mph 15 mph 65% 0 in 0 W/m2
22:59 36.9 °F 26.2 °F 30 in SE 2.1 mph 10.1 mph 65% 0 in 0 W/m2
23:04 36.9 °F 26.2 °F 30 in ESE 2 mph 7.6 mph 65% 0 in 0 W/m2
23:09 36.7 °F 26.1 °F 30 in South 3 mph 10.1 mph 65% 0 in 0 W/m2
23:14 36.7 °F 26.1 °F 30 in SE 4.1 mph 10.1 mph 65% 0 in 0 W/m2
23:19 36.7 °F 26.1 °F 30 in ESE 3.7 mph 10.1 mph 65% 0 in 0 W/m2
23:24 36.7 °F 25.7 °F 30 in ESE 5.1 mph 10.1 mph 64.1% 0 in 0 W/m2
23:29 36.9 °F 25.9 °F 30 in ESE 4.6 mph 12.5 mph 64% 0 in 0 W/m2
23:34 36.7 °F 25.7 °F 30 in SE 3.3 mph 15 mph 64% 0 in 0 W/m2
23:39 36.7 °F 25.7 °F 30 in SE 5.5 mph 15 mph 64% 0 in 0 W/m2
23:44 36.7 °F 25.3 °F 30 in ESE 3.4 mph 15 mph 63% 0 in 0 W/m2
23:49 36.9 °F 25.3 °F 30 in ESE 4.3 mph 12.5 mph 63% 0 in 0 W/m2
23:54 36.7 °F 25.3 °F 30 in ESE 3.6 mph 10.1 mph 63% 0 in 0 W/m2
23:59 36.7 °F 25.3 °F 30 in SSE 2.9 mph 10.1 mph 63.3% 0 in 0 W/m2
Juneau County Weather
Compliments of Weather Underground - 2 mb